logo
Rechercher aéroport 
image banner adimage banner adimage banner ad
image banner ad

CA67 - Valley Crop Dusters, Inc

Situé à Westley, United States

ICAO - CA67, IATA -

Données fournies par Airmate  

Information générale

Coordonnées: N37°32'53" W121°12'18"
Élévation : 96 feet MSL.
Variation magnétique : 16° East
Voir autres Aéroports à California

Données opérationnelles

Special qualification required
Heure actuelle UTC:
Heure actuelle locale:
METAR: KMOD 281153Z AUTO 01005KT 10SM CLR 17/09 A2994 RMK AO2 SLP138 T01670094 10206 20167 50002
TAF: KMOD 281122Z 2812/2912 34008KT P6SM SKC
Voir NOTAMs / SUP AIP / TFR affectant cet aéroport [VIEW]
Fréquences de communication: [VIEW]

Pistes:

Identifiant RWYQFULongueur (ft)Largeur (ft)SurfaceLDA (ft)
03156230ASPH
21156230ASPH

Coordonnées de l'aéroport

Adresse: Westley United States

Vue satellite de CA67